West Hollywood, Florida
Current Conditions -  °F | °C
As of 9:53 AM on Friday 24 Oct 2014 (Local Time) from KHWO Reporting Station
Overcast Overcast  
Wind Chill: 77°   Ceiling: 3800
Heat Index: 79°   Visibility: 10mi
Dew Point: 70°   Wind: 17mph
Humidity: 79%   Direction: 50°NE
Pressure: 29.89"   Gusts: 22mph
Location:  25.9895°N, 80.2144°W
Report Text: KHWO 241353Z 05015G19KT 10SM SCT026 OVC038 25/21 A2989 RMK AO2 RAE38B41E43 SLP123 P0000 T02500211
Loading
Personal Weather Stations






























Interactive Weather Map
Tropical Storm Tracking
New forecast layout! Learn more

10-Day Weather Forecast

Advertisements
Track Severe Weather on mobile